Time;durP1;ratioP1;P1;durP2;ratioP2;P2;SDS_P1;SDS_P2;PMS_P1;PMS_P2;Temp;Humidity;BMP_temperature;BMP_pressure;BME280_temperature;BME280_humidity;BME280_pressure;Samples;Min_cycle;Max_cycle;Signal;HPM_P1;HPM_P2
2024/01/07 00:02:08;;;;;;;1999.90;999.90;;;;;;;10.79;100.00;95290.88;5054173;28;20056;-63
2024/01/07 00:04:35;;;;;;;1999.90;999.90;;;;;;;10.68;100.00;95296.72;5052737;28;20560;-65
2024/01/07 00:07:02;;;;;;;1999.90;999.90;;;;;;;10.64;100.00;95297.00;5054005;28;20049;-67
2024/01/07 00:09:29;;;;;;;1999.90;999.90;;;;;;;10.61;100.00;95291.03;5053665;28;20060;-66
2024/01/07 00:11:58;;;;;;;1999.90;999.90;;;;;;;10.52;100.00;95294.16;5053809;28;20099;-65
2024/01/07 00:14:26;;;;;;;1999.90;999.90;;;;;;;10.45;100.00;95275.38;5053840;28;20044;-65
2024/01/07 00:16:53;;;;;;;1999.90;999.90;;;;;;;10.44;100.00;95268.44;5053833;28;20057;-69
2024/01/07 00:19:20;;;;;;;1999.90;999.90;;;;;;;10.42;100.00;95254.59;5053566;28;20514;-68
2024/01/07 00:21:47;;;;;;;1999.90;999.90;;;;;;;10.41;100.00;95245.09;5053352;28;20048;-67
2024/01/07 00:24:14;;;;;;;1999.90;999.90;;;;;;;10.41;100.00;95255.53;5053578;28;20044;-64
2024/01/07 00:26:41;;;;;;;1999.90;999.90;;;;;;;10.43;100.00;95250.22;5053645;28;20127;-68
2024/01/07 00:29:10;;;;;;;1999.90;999.90;;;;;;;10.44;100.00;95234.44;5053489;28;20057;-70
2024/01/07 00:31:36;;;;;;;1999.90;999.90;;;;;;;10.45;100.00;95227.47;5053456;28;20060;-62
2024/01/07 00:34:04;;;;;;;1999.90;999.90;;;;;;;10.48;100.00;95238.59;5053484;28;20057;-68
2024/01/07 00:36:31;;;;;;;1999.90;999.90;;;;;;;10.52;100.00;95227.97;5053466;28;20041;-68
2024/01/07 00:38:58;;;;;;;1999.90;999.90;;;;;;;10.55;100.00;95222.56;5053316;28;20048;-63
2024/01/07 00:41:25;;;;;;;1999.90;999.90;;;;;;;10.55;100.00;95240.84;5053383;28;20098;-63
2024/01/07 00:43:52;;;;;;;1999.90;999.90;;;;;;;10.57;100.00;95250.28;5053178;28;20445;-66
2024/01/07 00:46:21;;;;;;;1999.90;999.90;;;;;;;10.65;98.61;95265.53;5053313;28;20080;-67
2024/01/07 00:48:48;;;;;;;1999.90;999.90;;;;;;;10.69;98.74;95261.78;5053184;28;20060;-64
2024/01/07 00:51:15;;;;;;;1999.90;999.90;;;;;;;10.71;100.00;95248.63;5053249;28;20045;-65
2024/01/07 00:53:44;;;;;;;1999.90;999.90;;;;;;;10.70;100.00;95244.34;5052767;28;20076;-65
2024/01/07 00:56:11;;;;;;;1999.90;999.90;;;;;;;10.54;100.00;95268.75;5053255;28;20085;-63
2024/01/07 00:58:38;;;;;;;1999.90;999.90;;;;;;;10.43;100.00;95248.47;5053164;28;20399;-67
2024/01/07 01:01:05;;;;;;;1999.90;999.90;;;;;;;10.45;100.00;95251.84;5053046;28;20107;-67
2024/01/07 01:03:33;;;;;;;1999.90;999.90;;;;;;;10.33;100.00;95249.94;5053044;28;20414;-68
2024/01/07 01:06:02;;;;;;;1999.90;999.90;;;;;;;10.30;100.00;95221.34;5052971;28;20049;-66
2024/01/07 01:08:29;;;;;;;1999.90;999.90;;;;;;;10.34;100.00;95239.38;5052927;28;20057;-67
2024/01/07 01:10:56;;;;;;;1999.90;999.90;;;;;;;10.34;100.00;95230.69;5052966;28;20139;-69
2024/01/07 01:13:23;;;;;;;1999.90;999.90;;;;;;;10.33;100.00;95195.84;5052973;28;20049;-64
2024/01/07 01:15:50;;;;;;;1999.90;999.90;;;;;;;10.31;100.00;95187.28;5052934;28;20049;-67
2024/01/07 01:18:17;;;;;;;1999.90;999.90;;;;;;;10.31;100.00;95176.84;5052935;28;20053;-68
2024/01/07 01:20:45;;;;;;;1999.90;999.90;;;;;;;10.28;100.00;95158.72;5052654;28;20052;-71
2024/01/07 01:23:13;;;;;;;1999.90;999.90;;;;;;;10.26;100.00;95152.72;5052772;28;20501;-67
2024/01/07 01:25:40;;;;;;;1999.90;999.90;;;;;;;10.30;100.00;95149.00;5052779;28;20041;-64
2024/01/07 01:28:07;;;;;;;1999.90;999.90;;;;;;;10.31;100.00;95155.91;5052643;28;20132;-66
2024/01/07 01:30:34;;;;;;;1999.90;999.90;;;;;;;10.33;100.00;95159.28;5052682;28;20170;-69
2024/01/07 01:33:01;;;;;;;1999.90;999.90;;;;;;;10.38;100.00;95169.47;5052734;28;20102;-66
2024/01/07 01:35:28;;;;;;;1999.90;999.90;;;;;;;10.23;100.00;95158.97;5052729;28;20056;-68
2024/01/07 01:37:57;;;;;;;1999.90;999.90;;;;;;;10.23;100.00;95145.91;5052757;28;20123;-66
2024/01/07 01:40:24;;;;;;;1999.90;999.90;;;;;;;10.18;100.00;95139.28;5052751;28;20485;-65
2024/01/07 01:42:51;;;;;;;1999.90;999.90;;;;;;;10.14;100.00;95130.78;5052591;28;20127;-63
2024/01/07 01:45:18;;;;;;;1999.90;999.90;;;;;;;10.19;100.00;95120.91;5052625;28;20132;-68
2024/01/07 01:47:47;;;;;;;1999.90;999.90;;;;;;;10.17;100.00;95127.97;5052547;28;20128;-67
2024/01/07 01:50:14;;;;;;;1999.90;999.90;;;;;;;10.17;100.00;95119.31;5052375;28;20490;-67
2024/01/07 01:52:42;;;;;;;1999.90;999.90;;;;;;;10.22;100.00;95099.81;5052637;28;20049;-67
2024/01/07 01:55:10;;;;;;;1999.90;999.90;;;;;;;10.30;100.00;95101.94;5052556;28;20525;-64
2024/01/07 01:57:40;;;;;;;1999.90;999.90;;;;;;;10.31;100.00;95100.19;5052535;28;20049;-68
2024/01/07 02:00:08;;;;;;;1999.90;999.90;;;;;;;10.38;100.00;95096.25;5052555;28;20056;-65
2024/01/07 02:02:35;;;;;;;1999.90;999.90;;;;;;;10.31;100.00;95090.59;5052453;28;20441;-67
2024/01/07 02:05:03;;;;;;;1999.90;999.90;;;;;;;10.32;100.00;95092.25;5054636;28;20498;-65
2024/01/07 02:07:31;;;;;;;1999.90;999.90;;;;;;;10.41;100.00;95088.25;5056176;28;20053;-66
2024/01/07 02:09:58;;;;;;;1999.90;999.90;;;;;;;10.45;100.00;95075.84;5055992;28;20517;-68
2024/01/07 02:12:26;;;;;;;1999.90;999.90;;;;;;;10.48;100.00;95058.22;5056198;28;20100;-64
2024/01/07 02:14:53;;;;;;;1999.90;999.90;;;;;;;10.48;100.00;95063.44;5056133;28;20124;-65
2024/01/07 02:17:21;;;;;;;1999.90;999.90;;;;;;;10.47;100.00;95059.16;5056089;28;20053;-67
2024/01/07 02:19:48;;;;;;;1999.90;999.90;;;;;;;10.49;100.00;95046.84;5055865;28;20140;-64
2024/01/07 02:22:15;;;;;;;1999.90;999.90;;;;;;;10.56;100.00;95049.03;5055648;28;20060;-69
2024/01/07 02:24:43;;;;;;;1999.90;999.90;;;;;;;10.53;100.00;95034.41;5055963;28;20049;-65
2024/01/07 02:27:10;;;;;;;1999.90;999.90;;;;;;;10.58;100.00;95045.44;5055829;28;20084;-66
2024/01/07 02:29:37;;;;;;;1999.90;999.90;;;;;;;10.54;100.00;95022.19;5055647;28;20414;-69
2024/01/07 02:32:05;;;;;;;1999.90;999.90;;;;;;;10.48;100.00;95012.94;5055666;28;20048;-65
2024/01/07 02:34:32;;;;;;;1999.90;999.90;;;;;;;10.42;100.00;95031.59;5055805;28;20474;-68
2024/01/07 02:36:59;;;;;;;1999.90;999.90;;;;;;;10.35;100.00;95031.09;5055634;28;20136;-63
2024/01/07 02:39:27;;;;;;;1999.90;999.90;;;;;;;10.31;100.00;95000.88;5055579;28;20049;-67
2024/01/07 02:41:55;;;;;;;1999.90;999.90;;;;;;;10.25;100.00;94986.41;5055539;28;20454;-69
2024/01/07 02:44:22;;;;;;;1999.90;999.90;;;;;;;10.18;100.00;94991.16;5055796;28;20049;-68
2024/01/07 02:46:49;;;;;;;1999.90;999.90;;;;;;;10.13;100.00;94933.16;5055584;28;20122;-67
2024/01/07 02:49:17;;;;;;;1999.90;999.90;;;;;;;10.15;100.00;94961.78;5055300;28;20075;-66
2024/01/07 02:51:45;;;;;;;1999.90;999.90;;;;;;;10.13;100.00;94947.97;5055399;28;20053;-64
2024/01/07 02:54:12;;;;;;;1999.90;999.90;;;;;;;10.19;100.00;94952.81;5055373;28;20045;-65
2024/01/07 02:56:39;;;;;;;1999.90;999.90;;;;;;;10.15;100.00;94939.13;5055402;28;20099;-65
2024/01/07 02:59:08;;;;;;;1999.90;999.90;;;;;;;10.19;100.00;94942.38;5055225;28;20124;-65
2024/01/07 03:01:40;;;;;;;1999.90;999.90;;;;;;;10.26;100.00;94953.28;5055209;28;20068;-65
2024/01/07 03:04:07;;;;;;;1999.90;999.90;;;;;;;10.24;100.00;94953.41;5055164;28;20456;-68
2024/01/07 03:06:35;;;;;;;1999.90;999.90;;;;;;;10.28;100.00;94970.56;5055091;28;20049;-63
2024/01/07 03:09:02;;;;;;;1999.90;999.90;;;;;;;10.33;100.00;94962.44;5055008;28;20072;-64
2024/01/07 03:11:29;;;;;;;1999.90;999.90;;;;;;;10.35;100.00;94955.31;5055140;28;20072;-67
2024/01/07 03:13:57;;;;;;;1999.90;999.90;;;;;;;10.35;100.00;94957.94;5054981;28;20052;-66
2024/01/07 03:16:27;;;;;;;1999.90;999.90;;;;;;;10.36;100.00;94939.53;5054540;28;20048;-67
2024/01/07 03:18:54;;;;;;;1999.90;999.90;;;;;;;10.30;100.00;94918.19;5054888;28;20067;-65
2024/01/07 03:21:23;;;;;;;1999.90;999.90;;;;;;;10.27;100.00;94906.16;5054658;28;20518;-65
2024/01/07 03:23:51;;;;;;;1999.90;999.90;;;;;;;10.23;100.00;94907.28;5054856;28;20063;-66
2024/01/07 03:26:20;;;;;;;1999.90;999.90;;;;;;;10.19;100.00;94895.34;5054671;28;20041;-67
2024/01/07 03:28:47;;;;;;;1999.90;999.90;;;;;;;10.20;100.00;94882.19;5054582;28;20482;-67
2024/01/07 03:31:16;;;;;;;1999.90;999.90;;;;;;;10.21;100.00;94885.63;5054656;28;20052;-65
2024/01/07 03:33:44;;;;;;;1999.90;999.90;;;;;;;10.15;100.00;94870.34;5054628;28;20135;-63
2024/01/07 03:36:12;;;;;;;1999.90;999.90;;;;;;;10.04;100.00;94869.25;5054496;28;20127;-63
2024/01/07 03:38:40;;;;;;;1999.90;999.90;;;;;;;9.99;100.00;94842.56;5054458;28;20084;-65
2024/01/07 03:41:08;;;;;;;1999.90;999.90;;;;;;;9.90;100.00;94838.75;5054402;28;20041;-66
2024/01/07 03:43:35;;;;;;;1999.90;999.90;;;;;;;9.85;100.00;94833.00;5054353;28;20044;-67
2024/01/07 03:46:02;;;;;;;1999.90;999.90;;;;;;;9.88;100.00;94830.19;5054257;28;20083;-64
2024/01/07 03:48:29;;;;;;;1999.90;999.90;;;;;;;9.95;100.00;94830.63;5054277;28;20083;-65
2024/01/07 03:50:57;;;;;;;1999.90;999.90;;;;;;;9.91;100.00;94823.94;5054130;28;20045;-64
2024/01/07 03:53:24;;;;;;;1999.90;999.90;;;;;;;9.93;100.00;94820.28;5054199;28;20414;-65
2024/01/07 03:55:51;;;;;;;1999.90;999.90;;;;;;;9.96;100.00;94847.97;5054213;28;20045;-68
2024/01/07 03:58:18;;;;;;;1999.90;999.90;;;;;;;10.01;100.00;94839.84;5054229;28;20087;-63
2024/01/07 04:00:45;;;;;;;1999.90;999.90;;;;;;;10.05;100.00;94836.94;5054118;28;20044;-65
2024/01/07 04:03:12;;;;;;;1999.90;999.90;;;;;;;10.08;100.00;94851.59;5054069;28;20566;-65
2024/01/07 04:05:39;;;;;;;1999.90;999.90;;;;;;;10.12;100.00;94840.03;5053926;28;20462;-63
2024/01/07 04:08:10;;;;;;;1999.90;999.90;;;;;;;10.06;100.00;94835.19;5054076;28;20103;-66
2024/01/07 04:10:38;;;;;;;1999.90;999.90;;;;;;;10.03;100.00;94835.38;5053845;28;20049;-64
2024/01/07 04:13:05;;;;;;;1999.90;999.90;;;;;;;10.04;100.00;94811.78;5054020;28;20479;-65
2024/01/07 04:15:32;;;;;;;1999.90;999.90;;;;;;;10.02;100.00;94815.44;5053911;28;20087;-64
2024/01/07 04:18:03;;;;;;;1999.90;999.90;;;;;;;9.97;100.00;94803.47;5053678;28;20457;-64
2024/01/07 04:20:30;;;;;;;1999.90;999.90;;;;;;;9.93;100.00;94780.28;5053777;28;20049;-63
2024/01/07 04:22:57;;;;;;;1999.90;999.90;;;;;;;9.90;100.00;94794.34;5053517;28;20045;-67
2024/01/07 04:25:26;;;;;;;1999.90;999.90;;;;;;;9.83;100.00;94816.56;5053637;28;20060;-63
2024/01/07 04:27:53;;;;;;;1999.90;999.90;;;;;;;9.79;100.00;94813.34;5053053;28;20135;-65
2024/01/07 04:30:20;;;;;;;1999.90;999.90;;;;;;;9.72;100.00;94801.56;5053450;28;20048;-63
2024/01/07 04:32:47;;;;;;;1999.90;999.90;;;;;;;9.70;100.00;94770.34;5053556;28;20458;-67
2024/01/07 04:35:14;;;;;;;1999.90;999.90;;;;;;;9.69;100.00;94749.56;5053455;28;20140;-64
2024/01/07 04:37:41;;;;;;;1999.90;999.90;;;;;;;9.70;100.00;94740.81;5053342;28;20068;-64
2024/01/07 04:40:09;;;;;;;1999.90;999.90;;;;;;;9.61;100.00;94750.88;5053452;28;20102;-66
2024/01/07 04:42:37;;;;;;;1999.90;999.90;;;;;;;9.51;100.00;94752.38;5053366;28;20170;-64
2024/01/07 04:45:06;;;;;;;1999.90;999.90;;;;;;;9.42;100.00;94743.34;5053230;28;20480;-68
2024/01/07 04:47:35;;;;;;;1999.90;999.90;;;;;;;9.31;100.00;94751.88;5053212;28;20450;-65
2024/01/07 04:50:02;;;;;;;1999.90;999.90;;;;;;;9.28;100.00;94733.78;5053340;28;20083;-63
2024/01/07 04:52:29;;;;;;;1999.90;999.90;;;;;;;9.30;100.00;94763.22;5053160;28;20055;-67
2024/01/07 04:54:57;;;;;;;1999.90;999.90;;;;;;;9.29;100.00;94771.13;5053193;28;20052;-66
2024/01/07 04:57:24;;;;;;;1999.90;999.90;;;;;;;9.27;100.00;94762.59;5053079;28;20095;-65
2024/01/07 04:59:56;;;;;;;1999.90;999.90;;;;;;;9.22;100.00;94755.84;5053053;28;20503;-65
2024/01/07 05:02:33;;;;;;;1999.90;999.90;;;;;;;9.21;100.00;94776.81;5053050;28;20406;-65
2024/01/07 05:05:00;;;;;;;1999.90;999.90;;;;;;;9.20;100.00;94756.88;5052973;28;20060;-65
2024/01/07 05:07:29;;;;;;;1999.90;999.90;;;;;;;9.18;100.00;94777.84;5053150;28;20052;-65
2024/01/07 05:09:56;;;;;;;1999.90;999.90;;;;;;;9.13;100.00;94806.00;5052933;28;20091;-66
2024/01/07 05:12:25;;;;;;;1999.90;999.90;;;;;;;9.10;100.00;94767.06;5052943;28;20095;-67
2024/01/07 05:14:54;;;;;;;1999.90;999.90;;;;;;;9.02;100.00;94770.13;5051752;28;20045;-66
2024/01/07 05:17:23;;;;;;;1999.90;999.90;;;;;;;8.92;100.00;94771.59;5052951;28;20041;-63
2024/01/07 05:19:51;;;;;;;1999.90;999.90;;;;;;;8.79;100.00;94764.50;5052915;28;20053;-64
2024/01/07 05:22:19;;;;;;;1999.90;999.90;;;;;;;8.75;100.00;94763.00;5052603;28;20131;-67
2024/01/07 05:24:47;;;;;;;1999.90;999.90;;;;;;;8.68;100.00;94770.38;5052670;28;20045;-64
2024/01/07 05:27:14;;;;;;;1999.90;999.90;;;;;;;8.63;99.04;94750.69;5052906;28;20045;-66
2024/01/07 05:29:46;;;;;;;1999.90;999.90;;;;;;;8.47;98.23;94747.22;5052742;28;20052;-65
2024/01/07 05:32:17;;;;;;;1999.90;999.90;;;;;;;8.44;97.90;94768.22;5052835;28;20508;-64
2024/01/07 05:34:47;;;;;;;1999.90;999.90;;;;;;;8.37;98.25;94758.25;5052988;28;20056;-65
2024/01/07 05:37:14;;;;;;;1999.90;999.90;;;;;;;8.27;98.11;94756.16;5052511;28;20133;-67
2024/01/07 05:39:42;;;;;;;1999.90;999.90;;;;;;;8.22;99.41;94776.44;5056096;28;20049;-67
2024/01/07 05:42:13;;;;;;;1999.90;999.90;;;;;;;8.15;98.17;94786.34;5056738;28;20132;-68
2024/01/07 05:44:41;;;;;;;1999.90;999.90;;;;;;;8.10;98.72;94780.56;5056813;28;20052;-65
2024/01/07 05:47:09;;;;;;;1999.90;999.90;;;;;;;8.02;98.47;94782.75;5056569;28;20056;-65
2024/01/07 05:49:39;;;;;;;1999.90;999.90;;;;;;;7.98;98.83;94787.31;5056546;28;20053;-66
2024/01/07 05:52:07;;;;;;;1999.90;999.90;;;;;;;7.94;97.49;94760.59;5056589;28;20049;-66
2024/01/07 05:54:35;;;;;;;1999.90;999.90;;;;;;;7.94;97.47;94767.56;5056484;28;20049;-67
2024/01/07 05:57:02;;;;;;;1999.90;999.90;;;;;;;7.85;98.90;94766.31;5056112;28;20056;-66
2024/01/07 05:59:30;;;;;;;1999.90;999.90;;;;;;;7.84;96.64;94765.47;5056359;28;20045;-66
2024/01/07 06:02:01;;;;;;;1999.90;999.90;;;;;;;7.91;97.42;94745.13;5056333;28;20045;-64
2024/01/07 06:04:29;;;;;;;1999.90;999.90;;;;;;;7.87;97.63;94738.44;5056233;28;20052;-65
2024/01/07 06:06:59;;;;;;;1999.90;999.90;;;;;;;7.88;96.36;94755.72;5056154;28;20053;-65
2024/01/07 06:09:29;;;;;;;1999.90;999.90;;;;;;;7.93;94.86;94755.47;5056061;28;20053;-66
2024/01/07 06:11:56;;;;;;;1999.90;999.90;;;;;;;7.95;94.48;94738.81;5056110;28;20553;-67
2024/01/07 06:14:24;;;;;;;1999.90;999.90;;;;;;;7.92;94.90;94749.41;5056149;28;20052;-64
2024/01/07 06:16:52;;;;;;;1999.90;999.90;;;;;;;7.87;95.31;94745.41;5055999;28;20103;-65
2024/01/07 06:19:20;;;;;;;1999.90;999.90;;;;;;;7.81;94.95;94747.44;5056146;28;20407;-65
2024/01/07 06:21:47;;;;;;;1999.90;999.90;;;;;;;7.81;95.33;94734.41;5055765;28;20053;-67
2024/01/07 06:24:16;;;;;;;1999.90;999.90;;;;;;;7.76;95.99;94730.38;5055934;28;20464;-63
2024/01/07 06:26:44;;;;;;;1999.90;999.90;;;;;;;7.75;96.38;94733.91;5055773;28;20041;-64
2024/01/07 06:29:13;;;;;;;1999.90;999.90;;;;;;;7.75;95.95;94726.09;5055882;28;20052;-67
2024/01/07 06:31:48;;;;;;;1999.90;999.90;;;;;;;7.73;96.25;94736.59;5055640;28;20049;-64
2024/01/07 06:34:16;;;;;;;1999.90;999.90;;;;;;;7.73;95.53;94736.59;5055712;28;20049;-65
2024/01/07 06:36:43;;;;;;;1999.90;999.90;;;;;;;7.71;96.76;94735.84;5055605;28;20049;-66
2024/01/07 06:39:11;;;;;;;1999.90;999.90;;;;;;;7.62;97.75;94733.75;5055539;28;20131;-67
2024/01/07 06:41:42;;;;;;;1999.90;999.90;;;;;;;7.59;97.77;94738.19;5055734;28;20049;-64
2024/01/07 06:44:10;;;;;;;1999.90;999.90;;;;;;;7.62;98.05;94746.75;5055502;28;20049;-65
2024/01/07 06:46:43;;;;;;;1999.90;999.90;;;;;;;7.63;97.87;94762.28;5055480;28;20052;-69
2024/01/07 06:49:11;;;;;;;1999.90;999.90;;;;;;;7.65;97.66;94772.63;5055441;28;20080;-67
2024/01/07 06:51:39;;;;;;;1999.90;999.90;;;;;;;7.78;97.96;94773.63;5054639;28;20507;-66
2024/01/07 06:54:07;;;;;;;1999.90;999.90;;;;;;;8.15;95.08;94772.47;5055373;28;20049;-67
2024/01/07 06:56:35;;;;;;;1999.90;999.90;;;;;;;8.21;93.13;94765.16;5055428;28;20045;-68
2024/01/07 06:59:05;;;;;;;1999.90;999.90;;;;;;;8.05;94.86;94773.03;5055217;28;20454;-62
2024/01/07 07:01:32;;;;;;;1999.90;999.90;;;;;;;8.16;95.67;94782.81;5055317;28;20546;-67
2024/01/07 07:04:00;;;;;;;1999.90;999.90;;;;;;;8.20;94.66;94768.72;5055213;28;20487;-66
2024/01/07 07:06:28;;;;;;;1999.90;999.90;;;;;;;8.25;95.26;94789.25;5055061;28;20136;-66
2024/01/07 07:08:55;;;;;;;1999.90;999.90;;;;;;;8.65;92.90;94782.72;5055255;28;20136;-63
2024/01/07 07:11:23;;;;;;;1999.90;999.90;;;;;;;8.85;91.87;94774.56;5055120;28;20057;-67
2024/01/07 07:13:51;;;;;;;1999.90;999.90;;;;;;;9.00;90.84;94782.41;5055010;28;20430;-65
2024/01/07 07:16:19;;;;;;;1999.90;999.90;;;;;;;9.20;88.35;94781.22;5055026;28;20494;-65
2024/01/07 07:18:50;;;;;;;1999.90;999.90;;;;;;;9.20;85.31;94782.97;5054869;28;20049;-63
2024/01/07 07:21:18;;;;;;;1999.90;999.90;;;;;;;9.18;86.25;94780.47;5054666;28;20063;-63
2024/01/07 07:23:48;;;;;;;1999.90;999.90;;;;;;;9.29;84.85;94782.41;5054837;28;20041;-65
2024/01/07 07:26:15;;;;;;;;;;;;;;;9.13;86.04;94776.44;5055186;28;20045;-68
2024/01/07 07:28:43;;;;;;;1999.90;999.90;;;;;;;9.16;87.46;94787.56;5054523;28;19927;-65
2024/01/07 07:31:14;;;;;;;1999.90;999.90;;;;;;;9.22;86.55;94788.94;5054721;28;20049;-65
2024/01/07 07:33:44;;;;;;;1999.90;999.90;;;;;;;9.13;86.95;94805.16;5054579;28;20159;-64
2024/01/07 07:36:12;;;;;;;1999.90;999.90;;;;;;;9.02;87.64;94782.31;5054651;28;20450;-64
2024/01/07 07:38:39;;;;;;;1999.90;999.90;;;;;;;9.02;88.21;94782.31;5054502;28;20127;-63
2024/01/07 07:41:07;;;;;;;1999.90;999.90;;;;;;;8.96;89.14;94779.16;5054432;28;20087;-65
2024/01/07 07:43:35;;;;;;;1999.90;999.90;;;;;;;8.97;89.37;94786.03;5054409;28;20049;-65
2024/01/07 07:46:03;;;;;;;1999.90;999.90;;;;;;;8.95;88.98;94769.66;5054309;28;20052;-66
2024/01/07 07:48:30;;;;;;;1999.90;999.90;;;;;;;9.04;89.69;94768.28;5054348;28;20045;-67
2024/01/07 07:50:59;;;;;;;1999.90;999.90;;;;;;;9.63;89.48;94760.41;5054319;28;20080;-65
2024/01/07 07:53:28;;;;;;;1999.90;999.90;;;;;;;10.41;83.12;94750.25;5054410;28;20049;-64
2024/01/07 07:55:55;;;;;;;1999.90;999.90;;;;;;;11.43;77.69;94744.31;5054279;28;20076;-67
2024/01/07 07:58:23;;;;;;;1999.90;999.90;;;;;;;12.05;72.00;94765.31;5054030;28;20388;-69
2024/01/07 08:00:50;;;;;;;1999.90;999.90;;;;;;;12.61;69.53;94772.59;5054084;28;20080;-64
2024/01/07 08:03:18;;;;;;;1999.90;999.90;;;;;;;13.19;66.02;94783.25;5053186;28;20495;-67
2024/01/07 08:05:46;;;;;;;1999.90;999.90;;;;;;;13.61;63.75;94794.00;5054181;28;20124;-65
2024/01/07 08:08:19;;;;;;;1999.90;999.90;;;;;;;13.47;65.79;94796.84;5053942;28;20045;-66
2024/01/07 08:10:46;;;;;;;1999.90;999.90;;;;;;;13.16;66.03;94801.84;5053879;28;20049;-69
2024/01/07 08:13:14;;;;;;;1999.90;999.90;;;;;;;12.82;66.28;94794.75;5054065;28;20045;-66
2024/01/07 08:15:42;;;;;;;1999.90;999.90;;;;;;;12.81;67.50;94800.91;5053989;28;20473;-66
2024/01/07 08:18:10;;;;;;;1999.90;999.90;;;;;;;12.96;66.11;94791.91;5054262;28;20190;-67
2024/01/07 08:20:38;;;;;;;1999.90;999.90;;;;;;;13.13;64.82;94787.16;5053718;28;20098;-67
2024/01/07 08:23:10;;;;;;;1999.90;999.90;;;;;;;12.83;67.86;94784.13;5053645;28;20045;-65
2024/01/07 08:25:45;;;;;;;1999.90;999.90;;;;;;;12.67;68.32;94789.66;5053649;28;20094;-65
2024/01/07 08:28:18;;;;;;;1999.90;999.90;;;;;;;12.97;66.17;94801.44;5053755;28;20045;-67
2024/01/07 08:30:45;;;;;;;1999.90;999.90;;;;;;;12.87;67.25;94788.19;5053248;28;20115;-68
2024/01/07 08:33:16;;;;;;;1999.90;999.90;;;;;;;13.04;67.05;94783.47;5053586;28;20426;-67
2024/01/07 08:35:45;;;;;;;1999.90;999.90;;;;;;;13.37;65.03;94794.94;5053554;28;20052;-69
2024/01/07 08:38:14;;;;;;;1999.90;999.90;;;;;;;13.75;63.22;94794.72;5053555;28;20503;-69
2024/01/07 08:40:45;;;;;;;1999.90;999.90;;;;;;;13.67;64.32;94776.97;5053536;28;20498;-67
2024/01/07 08:43:14;;;;;;;1999.90;999.90;;;;;;;13.75;63.08;94782.44;5053615;28;20484;-66
2024/01/07 08:45:42;;;;;;;1999.90;999.90;;;;;;;13.80;63.04;94782.06;5053390;28;20071;-65
2024/01/07 08:48:16;;;;;;;1999.90;999.90;;;;;;;13.50;64.73;94783.53;5053509;28;20053;-67
2024/01/07 08:50:44;;;;;;;1999.90;999.90;;;;;;;13.08;66.49;94798.00;5053106;28;20090;-66
2024/01/07 08:53:12;;;;;;;1999.90;999.90;;;;;;;12.40;69.57;94779.44;5053128;28;20045;-66
2024/01/07 08:55:42;;;;;;;1999.90;999.90;;;;;;;12.29;70.95;94786.31;5053214;28;20048;-64
2024/01/07 08:58:10;;;;;;;1999.90;999.90;;;;;;;12.38;71.59;94776.94;5053140;28;20197;-64
2024/01/07 09:00:37;;;;;;;1999.90;999.90;;;;;;;12.35;70.27;94785.88;5053070;28;20045;-64
2024/01/07 09:03:05;;;;;;;1999.90;999.90;;;;;;;12.15;71.59;94768.13;5053170;28;20135;-63
2024/01/07 09:05:34;;;;;;;1999.90;999.90;;;;;;;11.81;71.79;94763.50;5053115;28;20064;-69
2024/01/07 09:08:01;;;;;;;1999.90;999.90;;;;;;;11.50;74.31;94756.03;5053067;28;20045;-65
2024/01/07 09:10:29;;;;;;;1999.90;999.90;;;;;;;11.37;74.57;94756.91;5052950;28;20049;-66
2024/01/07 09:12:58;;;;;;;1999.90;999.90;;;;;;;11.14;76.44;94752.41;5052613;28;20054;-65
2024/01/07 09:15:25;;;;;;;1999.90;999.90;;;;;;;11.04;77.36;94752.19;5053170;28;20060;-69
2024/01/07 09:17:53;;;;;;;1999.90;999.90;;;;;;;10.98;78.23;94749.06;5052892;28;20084;-68
2024/01/07 09:20:20;;;;;;;1999.90;999.90;;;;;;;10.95;77.44;94746.66;5052945;28;20062;-66
2024/01/07 09:22:48;;;;;;;1999.90;999.90;;;;;;;10.86;79.41;94749.91;5052556;28;20080;-67
2024/01/07 09:25:16;;;;;;;1999.90;999.90;;;;;;;10.91;80.57;94746.97;5052378;28;20487;-66
2024/01/07 09:27:44;;;;;;;1999.90;999.90;;;;;;;10.84;80.74;94734.31;5052798;28;20049;-68
2024/01/07 09:30:14;;;;;;;1999.90;999.90;;;;;;;10.91;80.64;94732.13;5052824;28;20098;-62
2024/01/07 09:32:42;;;;;;;1999.90;999.90;;;;;;;10.92;79.90;94736.41;5053040;28;20131;-68
2024/01/07 09:35:09;;;;;;;1999.90;999.90;;;;;;;10.90;79.20;94725.22;5052886;28;20041;-68
2024/01/07 09:37:38;;;;;;;1999.90;999.90;;;;;;;11.04;81.45;94729.50;5052885;28;20435;-64
2024/01/07 09:40:06;;;;;;;1999.90;999.90;;;;;;;11.20;81.16;94736.31;5052682;28;20048;-63
2024/01/07 09:42:34;;;;;;;1999.90;999.90;;;;;;;11.28;77.86;94720.88;5053156;28;20056;-66
2024/01/07 09:45:04;;;;;;;1999.90;999.90;;;;;;;11.33;77.57;94716.19;5052915;28;20106;-69
2024/01/07 09:47:33;;;;;;;1999.90;999.90;;;;;;;11.32;78.87;94727.56;5052837;28;20052;-66
2024/01/07 09:50:01;;;;;;;1999.90;999.90;;;;;;;11.31;77.80;94725.91;5052668;28;20506;-63
2024/01/07 09:52:28;;;;;;;1999.90;999.90;;;;;;;11.31;79.47;94720.69;5052626;28;20092;-67
2024/01/07 09:55:00;;;;;;;1999.90;999.90;;;;;;;11.40;79.68;94720.97;5052592;28;20549;-68
2024/01/07 09:57:28;;;;;;;1999.90;999.90;;;;;;;11.35;78.93;94700.38;5052554;28;20053;-65
2024/01/07 09:59:56;;;;;;;1999.90;999.90;;;;;;;11.42;78.47;94699.00;5052537;28;20045;-65
2024/01/07 10:02:24;;;;;;;1999.90;999.90;;;;;;;11.50;78.54;94694.03;5052692;28;20045;-69
2024/01/07 10:04:52;;;;;;;1999.90;999.90;;;;;;;11.68;78.95;94682.38;5052881;28;20502;-65
2024/01/07 10:07:20;;;;;;;1999.90;999.90;;;;;;;11.74;77.95;94690.59;5052503;28;20483;-65
2024/01/07 10:09:50;;;;;;;1999.90;999.90;;;;;;;11.65;77.00;94688.63;5052543;28;20045;-69
2024/01/07 10:12:17;;;;;;;1999.90;999.90;;;;;;;11.58;77.65;94687.41;5052442;28;20048;-67
2024/01/07 10:14:44;;;;;;;1999.90;999.90;;;;;;;11.61;78.55;94684.56;5052603;28;20049;-66
2024/01/07 10:17:18;;;;;;;1999.90;999.90;;;;;;;11.70;78.98;94672.59;5052448;28;20487;-66
2024/01/07 10:19:47;;;;;;;1999.90;999.90;;;;;;;11.76;77.38;94666.91;5052341;28;20045;-68
2024/01/07 10:22:17;;;;;;;1999.90;999.90;;;;;;;11.81;77.95;94661.34;5052269;28;20189;-66
2024/01/07 10:24:44;;;;;;;1999.90;999.90;;;;;;;11.78;77.28;94657.19;5052421;28;20053;-66
2024/01/07 10:27:13;;;;;;;1999.90;999.90;;;;;;;11.82;78.00;94661.22;5056137;28;20056;-63
2024/01/07 10:29:40;;;;;;;1999.90;999.90;;;;;;;11.86;77.69;94661.84;5055986;28;20080;-67
2024/01/07 10:32:08;;;;;;;1999.90;999.90;;;;;;;11.77;77.40;94646.81;5055998;28;20061;-64
2024/01/07 10:34:38;;;;;;;1999.90;999.90;;;;;;;11.80;77.13;94652.63;5055722;28;20053;-69
2024/01/07 10:37:06;;;;;;;1999.90;999.90;;;;;;;11.70;76.51;94649.88;5055382;28;20057;-65
2024/01/07 10:39:34;;;;;;;1999.90;999.90;;;;;;;11.71;76.28;94648.09;5055665;28;20056;-65
2024/01/07 10:42:02;;;;;;;1999.90;999.90;;;;;;;11.63;76.24;94639.00;5055636;28;20564;-66
2024/01/07 10:44:32;;;;;;;1999.90;999.90;;;;;;;11.69;77.89;94634.28;5055582;28;20495;-64
2024/01/07 10:47:00;;;;;;;1999.90;999.90;;;;;;;11.79;78.57;94627.41;5055660;28;20041;-65
2024/01/07 10:49:28;;;;;;;1999.90;999.90;;;;;;;11.74;76.93;94630.34;5055670;28;20495;-68
2024/01/07 10:52:05;;;;;;;1999.90;999.90;;;;;;;11.56;77.61;94621.25;5055441;28;20094;-68
2024/01/07 10:54:35;;;;;;;1999.90;999.90;;;;;;;11.40;78.88;94618.88;5055474;28;20064;-67
2024/01/07 10:57:10;;;;;;;1999.90;999.90;;;;;;;11.49;79.55;94619.06;5055552;28;20052;-69
2024/01/07 10:59:38;;;;;;;1999.90;999.90;;;;;;;11.47;78.63;94634.03;5055343;28;20453;-69